Time;durP1;ratioP1;P1;durP2;ratioP2;P2;SDS_P1;SDS_P2;PMS_P1;PMS_P2;Temp;Humidity;BMP_temperature;BMP_pressure;BME280_temperature;BME280_humidity;BME280_pressure;Samples;Min_cycle;Max_cycle;Signal;HPM_P1;HPM_P2
2023/09/22 00:00:38;;;;;;;6.82;5.07;;;15.90;99.90;;;;;;5019117;28;20397;-75
2023/09/22 00:03:07;;;;;;;7.85;4.78;;;15.80;99.90;;;;;;5029566;28;20018;-76
2023/09/22 00:05:33;;;;;;;7.43;4.22;;;15.90;99.90;;;;;;5029572;28;20022;-71
2023/09/22 00:07:58;;;;;;;5.25;4.43;;;15.90;99.90;;;;;;5032259;28;20029;-76
2023/09/22 00:10:24;;;;;;;6.15;4.50;;;15.90;99.90;;;;;;5047924;28;20494;-70
2023/09/22 00:12:50;;;;;;;5.25;4.07;;;15.90;99.90;;;;;;5037063;28;20434;-76
2023/09/22 00:15:15;;;;;;;8.25;4.85;;;15.90;99.90;;;;;;5029829;28;20048;-71
2023/09/22 00:17:41;;;;;;;7.05;5.20;;;15.90;99.90;;;;;;5041138;28;20117;-71
2023/09/22 00:20:08;;;;;;;7.10;4.43;;;15.80;99.90;;;;;;5029630;28;20033;-75
2023/09/22 00:22:34;;;;;;;7.38;4.82;;;15.90;99.90;;;;;;5043669;28;20387;-75
2023/09/22 00:25:00;;;;;;;5.32;4.28;;;15.90;99.90;;;;;;5046515;28;20032;-70
2023/09/22 00:27:26;;;;;;;7.88;4.60;;;15.80;99.90;;;;;;5045114;28;21217;-71
2023/09/22 00:29:52;;;;;;;5.95;4.00;;;15.80;99.90;;;;;;5029523;28;20029;-75
2023/09/22 00:32:18;;;;;;;6.78;4.95;;;15.80;99.90;;;;;;5027848;28;20106;-71
2023/09/22 00:34:43;;;;;;;7.78;4.72;;;15.80;99.90;;;;;;5029626;28;20034;-70
2023/09/22 00:37:09;;;;;;;5.68;4.43;;;15.80;99.90;;;;;;5032185;28;20060;-72
2023/09/22 00:39:35;;;;;;;6.43;4.65;;;15.80;99.90;;;;;;5032867;28;20022;-75
2023/09/22 00:42:08;;;;;;;10.95;4.47;;;15.80;99.90;;;;;;5032471;28;20037;-76
2023/09/22 00:44:34;;;;;;;7.53;4.00;;;15.80;99.90;;;;;;5041438;28;20475;-70
2023/09/22 00:47:00;;;;;;;8.68;4.82;;;15.80;99.90;;;;;;5048332;28;20039;-76
2023/09/22 00:49:26;;;;;;;4.75;3.97;;;15.80;99.90;;;;;;5032828;28;20032;-76
2023/09/22 00:51:52;;;;;;;5.90;4.65;;;15.80;99.90;;;;;;5048042;28;20057;-76
2023/09/22 00:54:19;;;;;;;7.28;4.18;;;15.80;99.90;;;;;;5041163;28;20013;-70
2023/09/22 00:56:45;;;;;;;6.53;3.90;;;15.90;99.90;;;;;;5035519;28;20408;-76
2023/09/22 00:59:13;;;;;;;6.25;4.85;;;15.90;99.90;;;;;;5032288;28;20022;-71
2023/09/22 01:01:41;;;;;;;7.63;4.50;;;15.90;99.90;;;;;;5030223;28;20022;-76
2023/09/22 01:04:06;;;;;;;10.68;4.50;;;16.00;99.90;;;;;;5032531;28;20078;-70
2023/09/22 01:06:32;;;;;;;9.02;4.35;;;16.10;99.90;;;;;;5032431;28;20014;-70
2023/09/22 01:09:05;;;;;;;6.07;4.38;;;16.10;99.90;;;;;;5032799;28;20398;-76
2023/09/22 01:11:34;;;;;;;5.80;3.85;;;16.10;99.90;;;;;;5032232;28;20140;-70
2023/09/22 01:14:00;;;;;;;4.85;4.15;;;16.10;99.90;;;;;;5032646;28;20022;-76
2023/09/22 01:16:26;;;;;;;7.40;3.92;;;16.20;99.90;;;;;;5032398;28;20022;-76
2023/09/22 01:18:52;;;;;;;8.23;4.60;;;16.20;99.90;;;;;;5028045;28;20020;-70
2023/09/22 01:21:18;;;;;;;5.85;4.10;;;16.20;99.90;;;;;;5014410;28;20018;-70
2023/09/22 01:23:44;;;;;;;5.93;4.68;;;16.20;99.90;;;;;;5022525;28;20471;-76
2023/09/22 01:26:10;;;;;;;5.05;4.15;;;16.20;99.90;;;;;;5031441;28;20024;-71
2023/09/22 01:28:35;;;;;;;7.95;3.88;;;16.10;99.90;;;;;;5020769;28;20018;-70
2023/09/22 01:31:01;;;;;;;5.97;4.13;;;16.10;99.90;;;;;;5031916;28;20033;-70
2023/09/22 01:33:27;;;;;;;4.75;3.58;;;16.10;99.90;;;;;;5031981;28;20034;-76
2023/09/22 01:35:53;;;;;;;6.15;3.80;;;16.10;99.90;;;;;;5026301;28;20018;-70
2023/09/22 01:38:23;;;;;;;8.73;4.60;;;16.10;99.90;;;;;;5039118;28;20137;-70
2023/09/22 01:40:49;;;;;;;7.00;4.30;;;16.10;99.90;;;;;;5032041;28;20048;-75
2023/09/22 01:43:16;;;;;;;4.25;3.85;;;16.10;99.90;;;;;;5031767;28;20112;-75
2023/09/22 01:45:42;;;;;;;7.35;3.97;;;16.00;99.90;;;;;;5032284;28;20546;-76
2023/09/22 01:48:09;;;;;;;4.72;4.30;;;16.00;99.90;;;;;;5031487;28;20036;-76
2023/09/22 01:50:37;;;;;;;5.38;4.20;;;16.10;99.90;;;;;;5031825;28;20042;-70
2023/09/22 01:53:04;;;;;;;5.00;4.25;;;16.10;99.90;;;;;;5025243;28;20352;-70
2023/09/22 01:55:30;;;;;;;5.90;4.32;;;16.10;99.90;;;;;;5026570;28;20378;-71
2023/09/22 01:57:56;;;;;;;6.82;4.47;;;16.10;99.90;;;;;;5031466;28;20032;-72
2023/09/22 02:00:21;;;;;;;7.13;5.10;;;16.10;99.90;;;;;;5031521;28;20071;-71
2023/09/22 02:02:47;;;;;;;7.00;4.80;;;16.10;99.90;;;;;;5031580;28;20104;-76
2023/09/22 02:05:16;;;;;;;6.38;4.65;;;16.20;99.90;;;;;;5030416;28;20021;-76
2023/09/22 02:07:42;;;;;;;6.53;4.88;;;16.20;99.90;;;;;;5031613;28;20078;-76
2023/09/22 02:10:13;;;;;;;8.70;5.45;;;16.20;99.90;;;;;;5031280;28;20030;-76
2023/09/22 02:12:44;;;;;;;7.82;4.78;;;16.20;99.90;;;;;;5030075;28;20034;-71
2023/09/22 02:15:10;;;;;;;7.32;4.65;;;16.20;99.90;;;;;;5030155;28;20037;-76
2023/09/22 02:17:41;;;;;;;9.90;4.25;;;16.20;99.90;;;;;;5030341;28;20033;-76
2023/09/22 02:20:17;;;;;;;6.45;4.30;;;16.20;99.90;;;;;;5031428;28;20359;-76
2023/09/22 02:22:47;;;;;;;7.20;5.05;;;16.20;99.90;;;;;;5031719;28;20025;-71
2023/09/22 02:25:19;;;;;;;10.80;4.65;;;16.20;99.90;;;;;;5031337;28;20424;-76
2023/09/22 02:27:47;;;;;;;6.28;5.43;;;16.20;99.90;;;;;;5020279;28;20025;-76
2023/09/22 02:30:14;;;;;;;6.88;4.28;;;16.20;99.90;;;;;;5016570;28;20045;-70
2023/09/22 02:32:42;;;;;;;5.80;5.15;;;16.20;99.90;;;;;;5029664;28;20022;-70
2023/09/22 02:35:08;;;;;;;8.40;4.72;;;16.10;99.90;;;;;;5031195;28;20109;-76
2023/09/22 02:37:34;;;;;;;6.57;5.18;;;16.10;99.90;;;;;;5043558;28;20116;-71
2023/09/22 02:40:00;;;;;;;8.68;4.80;;;16.10;99.90;;;;;;5050607;28;20016;-76
2023/09/22 02:42:26;;;;;;;7.40;4.93;;;16.20;99.90;;;;;;5049633;28;20033;-76
2023/09/22 02:44:52;;;;;;;5.88;5.00;;;16.10;99.90;;;;;;5043809;28;20025;-70
2023/09/22 02:47:18;;;;;;;6.25;5.15;;;16.10;99.90;;;;;;5030742;28;20021;-76
2023/09/22 02:49:44;;;;;;;5.85;4.80;;;16.10;99.90;;;;;;5037274;28;20052;-76
2023/09/22 02:52:10;;;;;;;7.28;5.50;;;16.00;99.90;;;;;;5049527;28;20073;-76
2023/09/22 02:54:36;;;;;;;10.25;5.18;;;16.00;99.90;;;;;;5049670;28;20467;-71
2023/09/22 02:57:03;;;;;;;7.72;5.25;;;16.00;99.90;;;;;;5048867;28;20028;-76
2023/09/22 02:59:29;;;;;;;6.32;5.47;;;16.00;99.90;;;;;;5046969;28;20201;-76
2023/09/22 03:01:55;;;;;;;9.27;5.63;;;16.00;99.90;;;;;;5035058;28;20475;-71
2023/09/22 03:04:21;;;;;;;6.10;5.00;;;16.00;99.90;;;;;;5030553;28;20045;-76
2023/09/22 03:06:47;;;;;;;7.65;5.13;;;15.90;99.90;;;;;;5042280;28;20035;-71
2023/09/22 03:09:14;;;;;;;5.75;4.78;;;16.00;99.90;;;;;;5041961;28;20017;-70
2023/09/22 03:11:41;;;;;;;7.07;5.97;;;16.00;99.90;;;;;;5030226;28;20033;-76
2023/09/22 03:14:06;;;;;;;10.45;5.65;;;16.00;99.90;;;;;;5041181;28;20017;-76
2023/09/22 03:16:33;;;;;;;7.57;5.40;;;16.00;99.90;;;;;;5034924;28;20025;-70
2023/09/22 03:18:59;;;;;;;7.43;5.78;;;16.10;99.90;;;;;;5035933;28;20021;-76
2023/09/22 03:21:26;;;;;;;11.20;5.95;;;16.10;99.90;;;;;;5045028;28;20024;-70
2023/09/22 03:23:53;;;;;;;7.47;4.75;;;16.10;99.90;;;;;;5035701;28;20117;-76
2023/09/22 03:26:20;;;;;;;8.40;5.63;;;16.10;99.90;;;;;;5045750;28;20108;-76
2023/09/22 03:28:46;;;;;;;9.32;5.05;;;16.10;99.90;;;;;;5018724;28;20387;-76
2023/09/22 03:31:12;;;;;;;5.28;4.78;;;16.10;99.90;;;;;;5030093;28;20030;-71
2023/09/22 03:33:41;;;;;;;7.15;5.10;;;16.20;99.90;;;;;;5030284;28;20062;-70
2023/09/22 03:36:10;;;;;;;5.40;4.68;;;16.10;99.90;;;;;;5029996;28;20047;-76
2023/09/22 03:38:40;;;;;;;8.20;5.28;;;16.10;99.90;;;;;;5029896;28;20069;-76
2023/09/22 03:41:06;;;;;;;6.78;5.13;;;16.10;99.90;;;;;;5033538;28;20394;-71
2023/09/22 03:43:32;;;;;;;7.53;5.30;;;16.00;99.90;;;;;;5039753;28;20025;-71
2023/09/22 03:45:58;;;;;;;8.00;4.82;;;16.00;99.90;;;;;;5030154;28;20025;-76
2023/09/22 03:48:24;;;;;;;8.05;6.15;;;16.00;99.90;;;;;;5029860;28;20022;-71
2023/09/22 03:50:50;;;;;;;7.85;5.32;;;16.00;99.90;;;;;;5041513;28;20402;-76
2023/09/22 03:53:15;;;;;;;7.95;5.53;;;16.00;99.90;;;;;;5039818;28;20021;-76
2023/09/22 03:55:41;;;;;;;8.65;5.45;;;16.00;99.90;;;;;;5032848;28;20048;-71
2023/09/22 03:58:07;;;;;;;7.35;5.47;;;16.00;99.90;;;;;;5039915;28;20474;-76
2023/09/22 04:00:33;;;;;;;7.72;5.38;;;16.00;99.90;;;;;;5045580;28;20382;-71
2023/09/22 04:03:01;;;;;;;7.40;5.95;;;16.10;99.90;;;;;;5032691;28;20029;-71
2023/09/22 04:05:27;;;;;;;9.10;6.18;;;16.00;99.90;;;;;;5035426;28;20108;-76
2023/09/22 04:07:57;;;;;;;6.60;5.50;;;16.00;99.90;;;;;;5029026;28;20116;-76
2023/09/22 04:10:23;;;;;;;7.68;5.70;;;16.00;99.90;;;;;;5030855;28;20124;-76
2023/09/22 04:12:50;;;;;;;7.90;5.38;;;16.00;99.90;;;;;;5032220;28;20034;-76
2023/09/22 04:15:16;;;;;;;12.32;6.20;;;15.90;99.90;;;;;;5032175;28;20021;-76
2023/09/22 04:17:42;;;;;;;8.27;6.22;;;15.90;99.90;;;;;;5029608;28;20021;-70
2023/09/22 04:20:10;;;;;;;6.38;5.78;;;15.90;99.90;;;;;;5028192;28;20026;-70
2023/09/22 04:22:37;;;;;;;8.38;5.78;;;15.90;99.90;;;;;;5028351;28;20024;-71
2023/09/22 04:25:18;;;;;;;6.25;5.32;;;15.90;99.90;;;;;;5030064;28;20021;-76
2023/09/22 04:27:47;;;;;;;6.28;5.13;;;15.90;99.90;;;;;;5018607;28;20038;-70
2023/09/22 04:30:16;;;;;;;6.85;5.60;;;16.00;99.90;;;;;;5027827;28;20018;-76
2023/09/22 04:32:45;;;;;;;12.38;6.47;;;15.90;99.90;;;;;;5028221;28;20555;-76
2023/09/22 04:35:11;;;;;;;7.35;6.30;;;15.90;99.90;;;;;;5019640;28;20060;-76
2023/09/22 04:37:37;;;;;;;9.88;6.95;;;15.90;99.90;;;;;;5032081;28;20053;-76
2023/09/22 04:40:11;;;;;;;8.05;6.75;;;15.90;99.90;;;;;;5024974;28;20168;-76
2023/09/22 04:42:37;;;;;;;12.95;7.32;;;16.00;99.90;;;;;;5021874;28;20026;-71
2023/09/22 04:45:03;;;;;;;8.80;6.85;;;16.00;99.90;;;;;;5040716;28;20459;-70
2023/09/22 04:47:29;;;;;;;10.60;6.20;;;16.10;99.90;;;;;;5027777;28;20029;-71
2023/09/22 04:49:55;;;;;;;9.50;6.60;;;16.10;99.90;;;;;;5027654;28;20151;-76
2023/09/22 04:52:20;;;;;;;10.32;6.53;;;16.10;99.90;;;;;;5025290;28;20065;-76
2023/09/22 04:54:46;;;;;;;9.82;7.38;;;16.10;99.90;;;;;;5020357;28;20026;-76
2023/09/22 04:57:11;;;;;;;9.43;6.10;;;16.10;99.90;;;;;;5014103;28;20101;-76
2023/09/22 04:59:37;;;;;;;7.55;6.40;;;16.10;99.90;;;;;;5021700;28;20082;-76
2023/09/22 05:02:04;;;;;;;9.55;7.05;;;16.10;99.90;;;;;;5040091;28;20045;-76
2023/09/22 05:04:30;;;;;;;8.60;7.00;;;16.10;99.90;;;;;;5040280;28;20027;-70
2023/09/22 05:06:56;;;;;;;9.02;6.05;;;16.10;99.90;;;;;;5043990;28;20104;-76
2023/09/22 05:09:22;;;;;;;6.60;5.85;;;16.20;99.90;;;;;;5041011;28;20098;-70
2023/09/22 05:11:48;;;;;;;9.70;6.72;;;16.20;99.90;;;;;;5035215;28;20037;-71
2023/09/22 05:14:14;;;;;;;6.90;6.13;;;16.20;99.90;;;;;;5027020;28;20044;-71
2023/09/22 05:16:42;;;;;;;7.55;6.53;;;16.20;99.90;;;;;;5030448;28;20051;-75
2023/09/22 05:19:07;;;;;;;9.13;6.40;;;16.20;99.90;;;;;;5042523;28;20074;-70
2023/09/22 05:21:33;;;;;;;11.05;6.32;;;16.20;99.90;;;;;;5035650;28;20472;-71
2023/09/22 05:23:59;;;;;;;9.02;7.18;;;16.30;99.90;;;;;;5030477;28;20060;-76
2023/09/22 05:26:25;;;;;;;9.35;6.88;;;16.30;99.90;;;;;;5033093;28;20034;-76
2023/09/22 05:28:51;;;;;;;10.32;7.18;;;16.40;99.90;;;;;;5018677;28;20025;-76
2023/09/22 05:31:18;;;;;;;10.10;6.60;;;16.50;99.90;;;;;;5031638;28;20038;-77
2023/09/22 05:33:44;;;;;;;11.40;6.63;;;16.60;99.90;;;;;;5030126;28;20026;-76
2023/09/22 05:36:10;;;;;;;11.13;7.43;;;16.70;99.90;;;;;;5031957;28;20355;-76
2023/09/22 05:38:37;;;;;;;9.60;6.40;;;16.80;99.90;;;;;;5045387;28;20049;-76
2023/09/22 05:41:04;;;;;;;8.73;6.43;;;16.80;99.90;;;;;;5027972;28;20013;-76
2023/09/22 05:43:31;;;;;;;8.43;6.45;;;16.90;99.90;;;;;;5035468;28;20116;-76
2023/09/22 05:45:56;;;;;;;12.00;6.85;;;16.90;99.90;;;;;;5035842;28;20088;-76
2023/09/22 05:48:22;;;;;;;10.63;6.70;;;17.00;99.90;;;;;;5034597;28;20501;-71
2023/09/22 05:50:59;;;;;;;7.82;6.70;;;17.00;99.90;;;;;;5039244;28;20179;-71
2023/09/22 05:53:25;;;;;;;7.60;6.47;;;17.10;99.90;;;;;;5033448;28;20450;-71
2023/09/22 05:56:08;;;;;;;10.13;6.63;;;17.10;99.90;;;;;;5034829;28;20497;-71
2023/09/22 05:58:38;;;;;;;7.32;5.75;;;17.10;99.90;;;;;;5026089;28;20013;-71
2023/09/22 06:01:12;;;;;;;9.73;6.32;;;17.20;99.90;;;;;;5036108;28;20428;-71
2023/09/22 06:03:39;;;;;;;10.27;6.85;;;17.40;99.90;;;;;;5038774;28;20424;-71
2023/09/22 06:06:11;;;;;;;9.50;6.65;;;17.40;99.90;;;;;;5031200;28;20034;-71
2023/09/22 06:08:38;;;;;;;8.75;5.85;;;17.50;99.90;;;;;;5031398;28;20018;-71
2023/09/22 06:11:04;;;;;;;9.73;7.05;;;17.60;99.90;;;;;;5030453;28;20037;-71
2023/09/22 06:13:30;;;;;;;11.52;6.97;;;17.60;99.90;;;;;;5029956;28;20030;-76
2023/09/22 06:15:56;;;;;;;10.55;6.47;;;17.60;99.90;;;;;;5029897;28;20025;-76
2023/09/22 06:18:22;;;;;;;6.45;5.80;;;17.60;99.90;;;;;;5031325;28;20014;-71
2023/09/22 06:20:49;;;;;;;8.52;6.30;;;17.60;99.90;;;;;;5031986;28;20029;-76
2023/09/22 06:23:16;;;;;;;9.63;6.13;;;17.60;99.90;;;;;;5031036;28;20146;-76
2023/09/22 06:25:42;;;;;;;11.18;6.10;;;17.60;99.90;;;;;;5030925;28;20034;-71
2023/09/22 06:28:07;;;;;;;6.75;5.80;;;17.60;99.90;;;;;;5020796;28;20036;-71
2023/09/22 06:30:36;;;;;;;9.27;6.97;;;17.60;99.90;;;;;;5029707;28;20025;-71
2023/09/22 06:33:04;;;;;;;9.05;6.82;;;17.70;99.90;;;;;;5026146;28;20065;-71
2023/09/22 06:35:31;;;;;;;9.77;7.57;;;17.90;99.90;;;;;;5020308;28;20117;-71
2023/09/22 06:37:57;;;;;;;8.68;6.60;;;18.10;99.90;;;;;;5031918;28;20037;-71
2023/09/22 06:40:23;;;;;;;8.38;6.13;;;18.20;99.90;;;;;;5014113;28;20029;-71
2023/09/22 06:42:49;;;;;;;9.32;6.93;;;18.30;99.90;;;;;;5013586;28;20030;-71
2023/09/22 06:45:16;;;;;;;12.57;6.65;;;18.50;99.90;;;;;;5017747;28;21331;-71
2023/09/22 06:47:42;;;;;;;8.95;6.68;;;18.70;99.90;;;;;;5017574;28;20428;-72
2023/09/22 06:50:08;;;;;;;9.77;6.70;;;18.80;99.90;;;;;;5015933;28;20025;-71
2023/09/22 06:52:37;;;;;;;11.82;6.43;;;18.80;99.90;;;;;;5022846;28;20055;-71
2023/09/22 06:55:08;;;;;;;14.20;7.35;;;18.90;99.90;;;;;;5013501;28;20101;-72
2023/09/22 06:57:36;;;;;;;9.43;7.00;;;19.00;99.90;;;;;;5020412;28;20104;-71
2023/09/22 07:00:09;;;;;;;8.88;6.32;;;19.20;99.90;;;;;;5024449;28;20100;-71
2023/09/22 07:02:34;;;;;;;10.10;5.65;;;19.40;99.90;;;;;;5016807;28;20472;-71
2023/09/22 07:05:00;;;;;;;12.95;8.65;;;19.60;99.90;;;;;;5031959;28;20022;-71
2023/09/22 07:07:26;;;;;;;9.80;6.07;;;19.90;99.90;;;;;;5041744;28;20476;-77
2023/09/22 07:09:52;;;;;;;10.13;6.32;;;20.10;99.90;;;;;;5015153;28;20050;-71
2023/09/22 07:12:17;;;;;;;8.38;5.68;;;20.30;99.90;;;;;;5011772;28;20452;-72
2023/09/22 07:14:43;;;;;;;8.13;6.32;;;20.60;99.90;;;;;;5015471;28;20026;-71
2023/09/22 07:17:09;;;;;;;17.92;6.65;;;20.70;99.90;;;;;;5021483;28;20110;-71
2023/09/22 07:19:39;;;;;;;9.07;5.85;;;21.00;99.90;;;;;;5031252;28;20036;-71
2023/09/22 07:22:05;;;;;;;7.05;5.25;;;21.20;99.90;;;;;;5030529;28;20094;-71
2023/09/22 07:24:31;;;;;;;10.63;5.38;;;21.50;98.20;;;;;;5032020;28;20051;-71
2023/09/22 07:26:56;;;;;;;6.97;4.20;;;21.60;95.10;;;;;;5025731;28;20029;-71
2023/09/22 07:29:22;;;;;;;5.35;3.30;;;21.50;86.40;;;;;;5023437;28;20029;-71
2023/09/22 07:31:47;;;;;;;5.85;3.40;;;21.40;86.30;;;;;;5029972;28;20083;-71
2023/09/22 07:34:13;;;;;;;8.13;3.67;;;21.40;84.90;;;;;;5030067;28;20364;-71
2023/09/22 07:36:39;;;;;;;9.07;3.75;;;21.60;86.40;;;;;;5030026;28;20532;-71
2023/09/22 07:39:04;;;;;;;4.68;3.25;;;21.90;84.30;;;;;;5030567;28;20567;-72
2023/09/22 07:41:30;;;;;;;6.03;3.20;;;22.20;81.40;;;;;;5029872;28;20104;-71
2023/09/22 07:43:57;;;;;;;11.77;3.60;;;22.40;79.00;;;;;;5029385;28;20046;-76
2023/09/22 07:46:23;;;;;;;6.13;2.90;;;22.70;78.90;;;;;;5033622;28;20024;-77
2023/09/22 07:48:51;;;;;;;7.13;2.70;;;22.80;74.30;;;;;;5047760;28;20430;-71
2023/09/22 07:51:17;;;;;;;7.78;3.30;;;22.90;73.10;;;;;;5045391;28;20559;-71
2023/09/22 07:53:44;;;;;;;3.53;2.80;;;23.00;73.20;;;;;;5036387;28;20029;-71
2023/09/22 07:56:12;;;;;;;6.15;3.20;;;23.20;73.60;;;;;;5029672;28;20025;-71
2023/09/22 07:58:40;;;;;;;3.72;2.30;;;23.30;72.90;;;;;;5042780;28;20025;-71
2023/09/22 08:01:11;;;;;;;7.80;2.97;;;23.40;70.30;;;;;;5039578;28;20021;-73
2023/09/22 08:03:37;;;;;;;3.50;2.38;;;23.50;69.70;;;;;;5029612;28;20038;-71
2023/09/22 08:06:05;;;;;;;4.97;2.42;;;23.70;69.10;;;;;;5039718;28;20471;-76
2023/09/22 08:08:31;;;;;;;3.88;2.47;;;23.70;68.60;;;;;;5028122;28;20025;-77
2023/09/22 08:10:58;;;;;;;3.85;2.80;;;23.70;67.90;;;;;;5040712;28;20391;-76
2023/09/22 08:13:24;;;;;;;7.55;3.05;;;23.80;67.60;;;;;;5029418;28;20029;-76
2023/09/22 08:15:51;;;;;;;4.93;2.70;;;23.90;67.60;;;;;;5036162;28;20127;-71
2023/09/22 08:18:17;;;;;;;7.20;2.78;;;24.10;67.80;;;;;;5033451;28;20375;-72
2023/09/22 08:20:42;;;;;;;5.85;2.60;;;24.10;66.90;;;;;;5025120;28;20040;-72
2023/09/22 08:23:08;;;;;;;3.25;2.10;;;24.20;66.50;;;;;;5038550;28;20021;-72
2023/09/22 08:25:43;;;;;;;4.40;2.38;;;24.20;65.70;;;;;;5031635;28;20026;-76
2023/09/22 08:28:12;;;;;;;7.00;2.42;;;24.00;65.60;;;;;;5022086;28;20022;-72
2023/09/22 08:30:39;;;;;;;3.05;1.80;;;24.00;67.20;;;;;;5029399;28;20078;-72
2023/09/22 08:33:05;;;;;;;5.13;2.20;;;24.10;66.90;;;;;;5028094;28;20474;-72
2023/09/22 08:35:31;;;;;;;5.07;2.63;;;24.10;65.90;;;;;;5030308;28;20394;-72
2023/09/22 08:37:57;;;;;;;5.57;2.42;;;24.30;66.90;;;;;;5035863;28;20048;-72
2023/09/22 08:40:22;;;;;;;5.68;2.83;;;24.30;67.50;;;;;;5033531;28;20477;-76
2023/09/22 08:42:51;;;;;;;4.20;2.60;;;24.00;67.10;;;;;;5032331;28;20056;-72
2023/09/22 08:45:17;;;;;;;3.53;2.17;;;24.00;66.60;;;;;;5032737;28;20018;-72
2023/09/22 08:47:45;;;;;;;5.00;2.53;;;24.00;67.40;;;;;;5032793;28;20032;-72
2023/09/22 08:50:19;;;;;;;4.93;2.83;;;24.00;68.30;;;;;;5033914;28;20032;-76
2023/09/22 08:52:53;;;;;;;4.18;2.55;;;24.00;68.80;;;;;;5033580;28;20108;-72
2023/09/22 08:55:20;;;;;;;4.32;2.85;;;24.00;70.00;;;;;;5032477;28;20055;-72
2023/09/22 08:57:48;;;;;;;4.38;2.38;;;23.70;68.50;;;;;;5025452;28;20029;-73
2023/09/22 09:00:21;;;;;;;6.63;2.53;;;23.70;69.10;;;;;;5036148;28;20471;-76
2023/09/22 09:02:49;;;;;;;5.00;2.55;;;23.70;69.40;;;;;;5034998;28;20114;-72
2023/09/22 09:05:29;;;;;;;7.65;2.28;;;23.80;69.80;;;;;;5032544;28;20029;-76
2023/09/22 09:08:08;;;;;;;4.35;2.65;;;23.80;70.10;;;;;;5033399;28;20121;-76
2023/09/22 09:10:35;;;;;;;3.92;2.30;;;23.80;70.00;;;;;;5040083;28;20040;-76
2023/09/22 09:13:02;;;;;;;5.22;2.45;;;23.90;70.10;;;;;;5042459;28;20364;-72
2023/09/22 09:15:30;;;;;;;4.82;2.50;;;24.00;70.10;;;;;;5039607;28;20030;-72
2023/09/22 09:18:08;;;;;;;7.57;3.05;;;24.00;70.30;;;;;;5040069;28;20025;-72
2023/09/22 09:20:36;;;;;;;6.10;2.40;;;24.00;69.70;;;;;;5027240;28;20030;-72
2023/09/22 09:23:14;;;;;;;4.50;2.45;;;24.10;70.20;;;;;;5030548;28;20018;-73
2023/09/22 09:25:47;;;;;;;4.43;2.22;;;24.10;69.60;;;;;;5037302;28;20018;-76
2023/09/22 09:28:15;;;;;;;4.10;2.47;;;24.00;68.80;;;;;;5022411;28;20088;-72
2023/09/22 09:30:52;;;;;;;6.38;2.47;;;24.10;70.40;;;;;;5032149;28;20036;-76
2023/09/22 09:33:22;;;;;;;6.07;2.67;;;24.10;70.10;;;;;;5026065;28;20036;-72
2023/09/22 09:35:49;;;;;;;6.40;2.50;;;24.20;70.80;;;;;;5025759;28;20495;-73
2023/09/22 09:38:17;;;;;;;4.30;2.72;;;24.20;71.20;;;;;;5035992;27;20483;-72
2023/09/22 09:40:43;;;;;;;4.97;2.60;;;24.30;70.50;;;;;;5031773;28;20030;-72
2023/09/22 09:43:13;;;;;;;4.88;2.10;;;24.30;71.10;;;;;;5053500;27;20029;-72
2023/09/22 09:45:59;;;;;;;5.97;2.83;;;24.10;70.20;;;;;;5038028;27;20058;-72
2023/09/22 09:48:26;;;;;;;3.88;2.10;;;24.00;71.00;;;;;;5043966;27;20035;-75
2023/09/22 09:51:00;;;;;;;6.10;2.65;;;24.00;69.10;;;;;;5037193;28;20039;-76
2023/09/22 09:53:45;;;;;;;4.68;2.80;;;24.00;68.70;;;;;;5036022;28;20056;-76
2023/09/22 09:56:14;;;;;;;7.85;2.83;;;23.90;69.30;;;;;;5031699;28;20017;-76
2023/09/22 09:58:41;;;;;;;37.97;12.48;;;23.90;69.50;;;;;;5037327;28;20398;-76
2023/09/22 10:01:07;;;;;;;16.60;8.18;;;23.80;70.40;;;;;;5040919;28;20017;-76
2023/09/22 10:03:39;;;;;;;6.00;2.78;;;23.80;71.30;;;;;;5033751;28;20040;-76
2023/09/22 10:06:08;;;;;;;8.85;4.15;;;24.10;72.00;;;;;;5039975;28;20021;-76
2023/09/22 10:08:35;;;;;;;5.57;3.45;;;24.50;71.80;;;;;;5029843;28;20033;-76
2023/09/22 10:11:04;;;;;;;4.13;2.60;;;24.70;71.90;;;;;;5039671;28;20037;-76
2023/09/22 10:13:30;;;;;;;3.15;2.42;;;24.80;69.50;;;;;;5039921;28;20033;-76
2023/09/22 10:15:57;;;;;;;6.30;2.55;;;24.90;68.40;;;;;;5035107;28;20093;-76
2023/09/22 10:18:44;;;;;;;7.82;3.00;;;24.80;67.50;;;;;;5024811;28;20148;-76
2023/09/22 10:21:30;;;;;;;5.90;2.22;;;24.80;68.80;;;;;;5025190;28;20017;-77
2023/09/22 10:24:14;;;;;;;3.25;2.53;;;24.60;69.00;;;;;;5017030;28;20238;-77
2023/09/22 10:27:11;;;;;;;4.00;2.53;;;24.30;68.60;;;;;;5026887;28;20041;-76
2023/09/22 10:29:54;;;;;;;6.22;2.42;;;24.10;70.20;;;;;;5033150;28;20087;-76
2023/09/22 10:32:21;;;;;;;7.25;2.58;;;24.20;71.60;;;;;;5039309;28;20467;-77
2023/09/22 10:34:51;;;;;;;4.82;2.80;;;24.40;69.90;;;;;;5027156;28;20029;-77
2023/09/22 10:37:22;;;;;;;5.10;2.70;;;24.50;70.40;;;;;;5030028;28;20066;-77
2023/09/22 10:39:52;;;;;;;6.65;2.60;;;24.40;69.70;;;;;;5021086;28;20533;-77
2023/09/22 10:42:21;;;;;;;3.38;2.20;;;24.50;69.60;;;;;;5028690;28;20475;-76
2023/09/22 10:44:58;;;;;;;4.70;2.28;;;24.70;69.20;;;;;;5027612;28;20030;-76
2023/09/22 10:47:37;;;;;;;3.80;2.00;;;24.80;69.10;;;;;;5041429;27;20031;-76
2023/09/22 10:50:19;;;;;;;5.35;2.35;;;24.80;67.70;;;;;;5026976;28;20034;-76
2023/09/22 10:52:56;;;;;;;5.82;2.30;;;24.80;66.80;;;;;;5027161;28;20037;-76
2023/09/22 10:55:42;;;;;;;8.05;3.22;;;24.80;67.00;;;;;;5029924;28;20030;-72
2023/09/22 10:58:21;;;;;;;4.05;2.47;;;24.80;67.80;;;;;;5026846;28;20078;-72
2023/09/22 11:01:01;;;;;;;5.93;2.72;;;25.00;68.40;;;;;;5023079;28;20108;-73
2023/09/22 11:03:33;;;;;;;5.63;2.33;;;25.00;68.20;;;;;;5045004;28;20459;-72
2023/09/22 11:06:06;;;;;;;2.95;2.13;;;25.20;68.60;;;;;;5038142;28;20042;-76
2023/09/22 11:08:32;;;;;;;4.10;2.22;;;25.40;68.30;;;;;;5033074;28;20041;-73
2023/09/22 11:10:58;;;;;;;6.47;2.20;;;25.50;65.40;;;;;;5029042;28;20061;-72
2023/09/22 11:13:24;;;;;;;3.80;2.13;;;25.60;64.60;;;;;;5028504;28;20517;-73
2023/09/22 11:15:56;;;;;;;7.45;2.83;;;25.70;64.40;;;;;;5027238;28;20032;-76
2023/09/22 11:18:37;;;;;;;5.07;2.58;;;25.60;64.70;;;;;;5038124;28;20029;-76
2023/09/22 11:21:05;;;;;;;3.60;2.15;;;25.70;64.60;;;;;;5028081;28;20100;-76
2023/09/22 11:23:35;;;;;;;4.57;2.33;;;25.70;64.10;;;;;;5033544;28;20028;-76
2023/09/22 11:26:06;;;;;;;7.60;2.42;;;25.90;64.60;;;;;;5034183;28;20086;-73
2023/09/22 11:28:32;;;;;;;5.10;2.50;;;26.00;65.30;;;;;;5021622;28;20064;-72
2023/09/22 11:31:19;;;;;;;6.15;2.22;;;25.80;64.30;;;;;;5030014;28;20038;-76
2023/09/22 11:33:58;;;;;;;3.38;2.28;;;25.60;64.30;;;;;;5029085;28;20105;-72
2023/09/22 11:36:23;;;;;;;3.88;2.38;;;25.60;64.90;;;;;;5037799;28;20017;-73
2023/09/22 11:38:53;;;;;;;7.10;2.33;;;25.70;65.10;;;;;;5037196;28;20073;-72
2023/09/22 11:41:21;;;;;;;6.57;2.53;;;25.90;63.90;;;;;;5044626;28;20025;-74
2023/09/22 11:43:49;;;;;;;5.88;2.25;;;25.90;63.40;;;;;;5049356;28;20013;-73
2023/09/22 11:46:27;;;;;;;4.95;3.72;;;26.00;62.70;;;;;;5048111;28;20021;-76
2023/09/22 11:49:07;;;;;;;8.23;2.97;;;26.00;63.20;;;;;;5039211;28;20021;-76
2023/09/22 11:51:45;;;;;;;5.53;2.38;;;25.90;63.00;;;;;;5017991;28;20053;-76
2023/09/22 11:54:13;;;;;;;4.35;2.05;;;25.70;62.80;;;;;;5027710;28;20021;-76
2023/09/22 11:56:39;;;;;;;4.18;1.98;;;25.90;62.90;;;;;;5029783;28;20425;-73
2023/09/22 11:59:12;;;;;;;6.38;2.38;;;26.00;64.30;;;;;;5042263;28;20043;-73
2023/09/22 12:01:39;;;;;;;2.90;1.80;;;25.90;61.50;;;;;;5040837;28;20044;-73
2023/09/22 12:04:06;;;;;;;5.47;2.22;;;25.70;61.80;;;;;;5035202;28;20110;-76
2023/09/22 12:06:32;;;;;;;6.78;1.98;;;25.70;62.10;;;;;;5042468;28;20445;-73
2023/09/22 12:08:58;;;;;;;6.97;2.00;;;25.70;62.30;;;;;;5041985;28;20048;-73
2023/09/22 12:11:25;;;;;;;6.25;2.28;;;25.80;62.80;;;;;;5040130;28;20037;-76
2023/09/22 12:13:51;;;;;;;7.30;2.10;;;25.90;63.00;;;;;;5028238;28;20033;-73
2023/09/22 12:16:17;;;;;;;3.45;2.10;;;25.90;62.50;;;;;;5039587;28;20401;-76
2023/09/22 12:18:42;;;;;;;3.88;1.85;;;26.00;62.20;;;;;;5041628;28;20025;-73
2023/09/22 12:21:08;;;;;;;5.15;2.20;;;26.10;61.90;;;;;;5034887;28;20029;-73
2023/09/22 12:23:34;;;;;;;5.18;2.65;;;26.20;60.60;;;;;;5027297;28;20060;-73
2023/09/22 12:26:01;;;;;;;4.63;2.03;;;26.20;61.80;;;;;;5036636;28;20409;-72
2023/09/22 12:28:26;;;;;;;4.25;1.83;;;26.20;62.30;;;;;;5019905;28;20364;-72
2023/09/22 12:30:52;;;;;;;3.75;2.10;;;26.20;62.40;;;;;;5029601;28;20041;-73
2023/09/22 12:33:18;;;;;;;2.55;1.70;;;26.00;62.00;;;;;;5030653;28;20105;-71
2023/09/22 12:35:47;;;;;;;4.13;1.92;;;26.00;63.40;;;;;;5030920;28;20022;-71
2023/09/22 12:38:12;;;;;;;3.70;1.92;;;26.00;62.40;;;;;;5032935;28;20036;-71
2023/09/22 12:40:39;;;;;;;3.92;2.15;;;25.90;61.90;;;;;;5030710;28;20028;-71
2023/09/22 12:43:05;;;;;;;6.22;2.65;;;25.80;62.80;;;;;;5028783;28;20487;-72
2023/09/22 12:45:31;;;;;;;4.85;2.42;;;25.70;62.90;;;;;;5032117;28;20018;-72
2023/09/22 12:47:57;;;;;;;4.57;2.03;;;25.60;64.40;;;;;;5034224;28;20114;-71
2023/09/22 12:50:23;;;;;;;5.28;2.05;;;25.50;64.30;;;;;;5032280;28;20449;-71